Flight Track Log - Related Links

Times and Time Zones

All times are in EDT time to prevent confusion due to time zone crossing. See the N234M flight status page for this flight to view local times or setup timezone preferences in your user account.

Time Position Orientation Groundspeed Altitude Reporting Facility
EDT Latitude Longitude Course Direction KTS MPH feet Rate Location/Type
Sun 12:16:39 PM 34.0392 -116.2153 270° West 157 181 6,600  Level Los Angeles Center
Sun 12:17:41 PM 34.0303 -116.2664 258° West 157 181 6,500 -48 Descending Los Angeles Center
Sun 12:18:43 PM 34.0200 -116.3222 257° West 158 182 6,500  Level Los Angeles Center
Sun 12:19:45 PM 34.0103 -116.3789 258° West 159 183 6,500  Level Los Angeles Center
Sun 12:20:47 PM 34.0017 -116.4292 258° West 159 183 6,500  Level Los Angeles Center
Sun 12:21:50 PM 33.9917 -116.4839 258° West 158 182 6,500  Level Los Angeles Center
Sun 12:22:00 PM 34.1334 -116.0852 270° West  Level FlightAware Approximate
Sun 12:22:52 PM 33.9817 -116.5397 258° West 159 183 6,500  Level Los Angeles Center
Sun 12:23:54 PM 33.9733 -116.5911 259° West 159 183 6,500  Level Los Angeles Center
Sun 12:24:56 PM 33.9678 -116.6478 263° West 159 183 6,500  Level Los Angeles Center
Sun 12:25:58 PM 33.9656 -116.7014 267° West 160 184 6,500  Level Los Angeles Center
Sun 12:27:00 PM 33.9731 -116.7581 279° West 161 185 6,500  Level Los Angeles Center
Sun 12:28:02 PM 33.9850 -116.8153 284° West 162 186 6,500  Level Los Angeles Center
Sun 12:29:04 PM 33.9919 -116.8647 280° West 163 188 6,500  Level Los Angeles Center
Sun 12:30:06 PM 34.0008 -116.9206 281° West 163 188 6,500  Level Los Angeles Center
Sun 12:31:09 PM 34.0092 -116.9767 280° West 167 192 6,500  Level Los Angeles Center
Sun 12:32:11 PM 34.0200 -117.0411 281° West 167 192 6,500  Level Los Angeles Center
Sun 12:33:13 PM 34.0275 -117.0953 279° West 167 192 6,500  Level Los Angeles Center
Sun 12:34:18 PM 34.0333 -117.1500 277° West 164 189 6,500  Level Southern California TRACON
Sun 12:35:18 PM 34.0500 -117.2167 287° West 165 190 6,500  Level Southern California TRACON
Sun 12:36:18 PM 34.0667 -117.2667 292° West 168 193 6,500  Level Southern California TRACON
Sun 12:37:18 PM 34.1000 -117.3000 320° Northwest 167 192 6,500  Level Southern California TRACON
Sun 12:38:18 PM 34.1167 -117.3500 292° West 161 185 6,500  Level Southern California TRACON
Sun 12:39:18 PM 34.1167 -117.4000 270° West 165 190 6,500  Level Southern California TRACON
Sun 12:40:19 PM 34.1333 -117.4500 292° West 164 189 6,500  Level Southern California TRACON
Sun 12:41:19 PM 34.1333 -117.5000 270° West 166 191 6,500 -50 Level Southern California TRACON
Sun 12:42:19 PM 34.1333 -117.5667 270° West 166 191 6,400 -50 Descending Southern California TRACON
Sun 12:43:19 PM 34.1500 -117.6167 292° West 166 191 6,400  Level Southern California TRACON
Sun 12:44:19 PM 34.1500 -117.6667 270° West 163 188 6,400 33 Level Southern California TRACON
Sun 12:46:19 PM 34.1667 -117.7833 280° West 159 183 6,500  Climbing Southern California TRACON
Sun 12:47:19 PM 34.1667 -117.8333 270° West 159 183 6,400  Descending Southern California TRACON
Sun 12:48:19 PM 34.1667 -117.8833 270° West 164 189 6,500 50 Climbing Southern California TRACON
Sun 12:49:19 PM 34.1833 -117.9500 287° West 167 192 6,500 -50 Level Southern California TRACON
Sun 12:50:19 PM 34.1833 -118.0000 270° West 225 259 6,400 33 Descending Southern California TRACON
Sun 12:52:20 PM 34.1667 -118.1167 254° West 165 190 6,600 77 Climbing Southern California TRACON
Sun 12:52:54 PM 34.1758 -118.1322 305° West 169 194 6,600 63 Level Los Angeles Center
Sun 12:53:56 PM 34.1842 -118.1958 279° West 167 192 6,700 -97 Climbing Los Angeles Center
Sun 12:54:58 PM 34.1964 -118.2464 286° West 162 186 6,400 -339 Descending Los Angeles Center
Sun 12:56:00 PM 34.2025 -118.2961 278° West 156 180 6,000 -194 Descending Los Angeles Center
Sun 12:57:02 PM 34.2047 -118.3433 273° West 148 170 6,000  Level Los Angeles Center
Sun 12:58:04 PM 34.2081 -118.3917 275° West 147 169 6,000 -145 Level Los Angeles Center
Sun 12:59:06 PM 34.2136 -118.4536 276° West 150 173 5,700 -432 Descending Los Angeles Center
Sun 01:00:09 PM 34.2161 -118.5103 273° West 163 188 5,100 -480 Descending Los Angeles Center
Sun 01:01:11 PM 34.2175 -118.5678 272° West 168 193 4,700 -290 Descending Los Angeles Center
Sun 01:02:13 PM 34.2206 -118.6228 274° West 168 193 4,500 -97 Descending Los Angeles Center
Sun 01:03:15 PM 34.2231 -118.6756 273° West 164 189 4,500  Level Los Angeles Center
Sun 01:03:46 PM 34.2242 -118.7111 272° West 152 175 4,500  Level Los Angeles Center
Sun 01:04:17 PM 34.2247 -118.7356 272° West 156 180 4,500  Level Los Angeles Center
Sun 01:04:40 PM 34.2203 -118.7514 251° West 145 167 4,500 -194 Level Los Angeles Center
Sun 01:05:19 PM 34.2150 -118.7833 259° West 149 171 4,300 -295 Descending Los Angeles Center
Sun 01:05:41 PM 34.2111 -118.8067 259° West 155 178 4,200 -290 Descending Los Angeles Center
Sun 01:06:21 PM 34.2133 -118.8358 275° West 156 180 4,000 -400 Descending Los Angeles Center
Sun 01:06:41 PM 34.2136 -118.8553 271° West 150 173 3,800 -571 Descending Los Angeles Center
Sun 01:07:24 PM 34.2122 -118.8867 267° West 155 178 3,400 -627 Descending Los Angeles Center
Sun 01:07:48 PM 34.2108 -118.9108 266° West 152 175 3,100 -677 Descending Los Angeles Center
Sun 01:08:26 PM 34.2117 -118.9367 272° West 153 176 2,700 -700 Descending Los Angeles Center
Sun 01:08:48 PM 34.2122 -118.9650 271° West 152 175 2,400 -97 Descending Los Angeles Center
Sun 01:09:28 PM 34.2131 -118.9864 273° West 153 176 2,600 -689 Climbing Los Angeles Center
Sun 01:09:49 PM 34.2133 -119.0089 271° West 137 158 1,700 -2,571 Descending Los Angeles Center
Sun 01:11:00 PM 34.2014 -119.0754 258° West  Level FlightAware Approximate
Sun 01:18:00 PM 34.2000 -119.0833 270° West  Level FlightAware Approximate
Sun 01:19:00 PM 34.2137 -119.0944 270° West  Level Estimated
Sun 01:20:00 PM 34.2137 -119.0944 270° West  Level Estimated
Sun 01:21:00 PM 34.2137 -119.0944 146° Southeast  Level Estimated
Sun 01:22:00 PM 34.2137 -119.0944 270° West  Level Estimated
Sun 01:23:00 PM 34.2137 -119.0944 146° Southeast  Level Estimated
Sun 01:24:00 PM 34.2137 -119.0944 270° West  Level Estimated
Sun 01:25:00 PM 34.2137 -119.0944 146° Southeast  Level Estimated
Sun 01:26:00 PM 34.2137 -119.0944 270° West  Level Estimated
Sun 01:27:00 PM 34.2137 -119.0944 146° Southeast  Level Estimated
Sun 01:28:00 PM 34.2137 -119.0944 270° West  Level Estimated
Sun 01:29:00 PM 34.2137 -119.0944 146° Southeast  Level Estimated
Sun 01:30:00 PM 34.2137 -119.0944 270° West  Level Estimated

Login

Don't have an account? Register now (free) for customized features, flight alerts, and more!